Time;durP1;ratioP1;P1;durP2;ratioP2;P2;SDS_P1;SDS_P2;PMS_P1;PMS_P2;Temp;Humidity;BMP_temperature;BMP_pressure;BME280_temperature;BME280_humidity;BME280_pressure;Samples;Min_cycle;Max_cycle;Signal;HPM_P1;HPM_P2
2024/01/31 00:01:38;;;;;;;3.42;0.98;;;;;;;;;;5021352;28;20038;-61
2024/01/31 00:04:05;;;;;;;2.22;1.15;;;;;;;;;;4988615;28;20061;-61
2024/01/31 00:06:31;;;;;;;4.13;0.93;;;;;;;;;;4988352;28;20038;-61
2024/01/31 00:08:57;;;;;;;5.55;2.65;;;;;;;;;;5004929;28;20149;-61
2024/01/31 00:11:30;;;;;;;3.55;1.23;;;;;;;;;;4989055;28;20049;-62
2024/01/31 00:13:56;;;;;;;4.78;1.30;;;;;;;;;;4989375;28;20506;-61
2024/01/31 00:16:22;;;;;;;4.25;1.20;;;;;;;;;;4989729;28;20452;-61
2024/01/31 00:18:50;;;;;;;3.33;1.00;;;;;;;;;;4989422;28;20120;-60
2024/01/31 00:21:16;;;;;;;1.98;1.00;;;;;;;;;;4983524;28;20492;-61
2024/01/31 00:23:42;;;;;;;5.47;1.20;;;;;;;;;;4974714;28;20177;-61
2024/01/31 00:26:09;;;;;;;2.17;0.85;;;;;;;;;;4973621;28;20065;-61
2024/01/31 00:28:35;;;;;;;1.92;0.90;;;;;;;;;;4980211;28;20042;-61
2024/01/31 00:31:01;;;;;;;2.55;1.83;;;;;;;;;;4981584;28;20038;-61
2024/01/31 00:33:27;;;;;;;2.78;1.00;;;;;;;;;;4988948;28;20039;-61
2024/01/31 00:35:55;;;;;;;1.50;0.90;;;;;;;;;;4982817;28;20038;-61
2024/01/31 00:38:21;;;;;;;2.63;1.08;;;;;;;;;;4979907;28;20046;-61
2024/01/31 00:40:48;;;;;;;1.02;0.82;;;;;;;;;;4977199;28;20054;-61
2024/01/31 00:43:14;;;;;;;2.42;0.98;;;;;;;;;;4987622;28;20480;-61
2024/01/31 00:45:51;;;;;;;2.95;1.30;;;;;;;;;;4976154;28;20498;-61
2024/01/31 00:48:17;;;;;;;6.03;1.33;;;;;;;;;;4982537;28;20460;-61
2024/01/31 00:50:43;;;;;;;1.70;0.90;;;;;;;;;;4982938;28;20411;-61
2024/01/31 00:53:09;;;;;;;5.30;1.20;;;;;;;;;;4985472;28;20031;-61
2024/01/31 00:55:36;;;;;;;1.95;1.00;;;;;;;;;;4974961;28;20042;-61
2024/01/31 00:58:02;;;;;;;2.80;1.20;;;;;;;;;;4983130;28;20042;-60
2024/01/31 01:00:28;;;;;;;6.05;1.67;;;;;;;;;;4977556;28;20049;-61
2024/01/31 01:02:54;;;;;;;4.32;0.88;;;;;;;;;;4979698;28;20097;-62
2024/01/31 01:05:20;;;;;;;3.90;1.17;;;;;;;;;;4973088;28;20484;-62
2024/01/31 01:07:47;;;;;;;2.40;1.15;;;;;;;;;;4981306;28;20420;-62
2024/01/31 01:10:13;;;;;;;3.60;1.10;;;;;;;;;;4978528;28;20039;-61
2024/01/31 01:12:41;;;;;;;3.55;1.10;;;;;;;;;;4987577;28;20482;-62
2024/01/31 01:15:08;;;;;;;1.65;1.05;;;;;;;;;;4985899;28;20447;-62
2024/01/31 01:17:35;;;;;;;4.00;1.10;;;;;;;;;;4989098;28;20092;-62
2024/01/31 01:20:01;;;;;;;1.85;0.90;;;;;;;;;;4988886;28;20066;-62
2024/01/31 01:22:27;;;;;;;7.18;1.10;;;;;;;;;;4997320;28;20046;-62
2024/01/31 01:24:54;;;;;;;6.40;2.13;;;;;;;;;;4988971;28;20042;-61
2024/01/31 01:27:20;;;;;;;2.28;1.10;;;;;;;;;;4979143;28;20492;-62
2024/01/31 01:29:46;;;;;;;2.08;0.88;;;;;;;;;;4981262;28;20065;-61
2024/01/31 01:32:12;;;;;;;4.85;1.30;;;;;;;;;;4989588;28;20026;-61
2024/01/31 01:34:41;;;;;;;3.67;1.05;;;;;;;;;;4981425;28;20181;-61
2024/01/31 01:37:08;;;;;;;2.45;1.45;;;;;;;;;;4978538;28;20039;-62
2024/01/31 01:39:37;;;;;;;5.97;1.35;;;;;;;;;;4982745;28;20045;-61
2024/01/31 01:42:03;;;;;;;3.10;1.17;;;;;;;;;;4987788;28;20058;-61
2024/01/31 01:44:30;;;;;;;2.78;0.90;;;;;;;;;;4980966;28;20061;-61
2024/01/31 01:46:57;;;;;;;1.23;0.90;;;;;;;;;;4980146;28;20090;-62
2024/01/31 01:49:23;;;;;;;2.70;1.10;;;;;;;;;;4986355;28;20042;-62
2024/01/31 01:51:49;;;;;;;2.40;0.90;;;;;;;;;;4985930;28;20496;-62
2024/01/31 01:54:16;;;;;;;2.42;1.23;;;;;;;;;;4990525;28;20419;-61
2024/01/31 01:56:44;;;;;;;1.10;0.77;;;;;;;;;;4988762;28;20041;-62
2024/01/31 01:59:11;;;;;;;4.20;1.33;;;;;;;;;;4988199;28;20042;-62
2024/01/31 02:01:38;;;;;;;1.83;0.73;;;;;;;;;;4987437;28;20521;-61
2024/01/31 02:04:05;;;;;;;3.60;1.00;;;;;;;;;;4990577;28;20071;-61
2024/01/31 02:06:31;;;;;;;3.22;1.67;;;;;;;;;;5020907;28;20042;-62
2024/01/31 02:08:59;;;;;;;2.03;0.90;;;;;;;;;;4989953;28;20049;-61
2024/01/31 02:11:26;;;;;;;2.33;0.85;;;;;;;;;;4990236;28;20152;-62
2024/01/31 02:13:52;;;;;;;1.80;0.82;;;;;;;;;;4989953;28;20063;-61
2024/01/31 02:16:18;;;;;;;5.00;1.27;;;;;;;;;;4992600;28;20037;-62
2024/01/31 02:18:44;;;;;;;2.30;0.80;;;;;;;;;;4991247;28;20044;-61
2024/01/31 02:21:10;;;;;;;1.88;0.98;;;;;;;;;;4989988;28;20388;-62
2024/01/31 02:23:36;;;;;;;1.67;0.77;;;;;;;;;;4988815;28;20104;-61
2024/01/31 02:26:02;;;;;;;3.45;1.08;;;;;;;;;;4989282;28;20085;-62
2024/01/31 02:28:29;;;;;;;1.65;1.05;;;;;;;;;;4989868;28;20048;-61
2024/01/31 02:30:56;;;;;;;3.50;1.42;;;;;;;;;;4988804;28;20038;-62
2024/01/31 02:33:22;;;;;;;3.60;1.00;;;;;;;;;;4989128;28;20042;-61
2024/01/31 02:35:48;;;;;;;3.17;1.63;;;;;;;;;;4991316;28;20030;-62
2024/01/31 02:38:14;;;;;;;4.18;1.25;;;;;;;;;;4997980;28;20119;-61
2024/01/31 02:40:40;;;;;;;3.55;1.17;;;;;;;;;;4990432;28;20121;-60
2024/01/31 02:43:06;;;;;;;7.25;1.85;;;;;;;;;;4986014;28;20054;-62
2024/01/31 02:45:33;;;;;;;4.13;1.30;;;;;;;;;;4990111;28;20603;-61
2024/01/31 02:48:01;;;;;;;7.18;1.45;;;;;;;;;;4987984;28;20085;-61
2024/01/31 02:50:30;;;;;;;2.95;1.13;;;;;;;;;;4989775;28;20042;-62
2024/01/31 02:52:56;;;;;;;2.60;0.90;;;;;;;;;;4990955;28;20297;-61
2024/01/31 02:55:22;;;;;;;4.03;1.45;;;;;;;;;;4990312;28;20034;-61
2024/01/31 02:57:48;;;;;;;2.22;1.08;;;;;;;;;;4989588;28;20097;-61
2024/01/31 03:00:16;;;;;;;2.22;1.27;;;;;;;;;;4991038;28;20078;-62
2024/01/31 03:02:43;;;;;;;3.40;1.13;;;;;;;;;;4990360;28;20601;-61
2024/01/31 03:05:09;;;;;;;2.95;1.17;;;;;;;;;;4990799;28;20108;-61
2024/01/31 03:07:35;;;;;;;3.13;1.65;;;;;;;;;;4990161;28;20042;-61
2024/01/31 03:10:02;;;;;;;4.85;1.55;;;;;;;;;;4990408;28;20129;-61
2024/01/31 03:12:28;;;;;;;3.58;0.90;;;;;;;;;;4988583;28;20042;-62
2024/01/31 03:14:54;;;;;;;1.45;0.80;;;;;;;;;;4980363;28;20627;-61
2024/01/31 03:17:20;;;;;;;5.57;1.05;;;;;;;;;;4989509;28;20050;-61
2024/01/31 03:19:46;;;;;;;1.95;1.08;;;;;;;;;;4982135;28;20035;-62
2024/01/31 03:22:12;;;;;;;3.35;0.90;;;;;;;;;;4986523;28;20136;-62
2024/01/31 03:24:38;;;;;;;3.95;1.17;;;;;;;;;;4984254;28;20119;-61
2024/01/31 03:27:05;;;;;;;5.22;1.10;;;;;;;;;;4983120;28;20046;-63
2024/01/31 03:29:31;;;;;;;3.95;1.08;;;;;;;;;;5014476;28;20500;-61
2024/01/31 03:32:00;;;;;;;3.45;1.13;;;;;;;;;;4981942;28;20125;-61
2024/01/31 03:34:26;;;;;;;4.53;1.20;;;;;;;;;;4973137;28;20468;-62
2024/01/31 03:36:52;;;;;;;6.43;1.15;;;;;;;;;;4986585;28;20053;-62
2024/01/31 03:39:19;;;;;;;2.55;1.08;;;;;;;;;;4984244;28;20050;-61
2024/01/31 03:41:46;;;;;;;4.18;1.98;;;;;;;;;;4979773;28;20094;-62
2024/01/31 03:44:15;;;;;;;4.38;1.70;;;;;;;;;;4990599;28;20041;-62
2024/01/31 03:46:41;;;;;;;2.17;0.77;;;;;;;;;;4990737;28;20085;-61
2024/01/31 03:49:07;;;;;;;6.47;1.05;;;;;;;;;;4981626;28;20126;-61
2024/01/31 03:51:33;;;;;;;5.80;1.25;;;;;;;;;;5013329;28;20049;-61
2024/01/31 03:54:00;;;;;;;1.88;1.00;;;;;;;;;;4981486;28;20039;-62
2024/01/31 03:56:26;;;;;;;1.67;1.00;;;;;;;;;;4987174;28;20038;-62
2024/01/31 03:58:52;;;;;;;2.20;0.90;;;;;;;;;;4973430;28;20407;-61
2024/01/31 04:01:18;;;;;;;6.72;1.15;;;;;;;;;;4987262;28;20046;-61
2024/01/31 04:03:45;;;;;;;8.77;1.67;;;;;;;;;;4976443;28;20038;-62
2024/01/31 04:06:12;;;;;;;1.60;0.70;;;;;;;;;;4978489;28;20426;-62
2024/01/31 04:08:38;;;;;;;7.65;1.38;;;;;;;;;;4980835;28;20049;-62
2024/01/31 04:11:04;;;;;;;6.32;1.33;;;;;;;;;;4981443;28;20117;-61
2024/01/31 04:13:31;;;;;;;3.75;1.30;;;;;;;;;;4984326;28;20042;-62
2024/01/31 04:15:58;;;;;;;1.45;0.80;;;7.30;99.90;;;;;;4980417;28;20539;-62
2024/01/31 04:18:24;;;;;;;1.20;0.88;;;6.40;99.90;;;;;;4987572;28;20038;-61
2024/01/31 04:20:50;;;;;;;2.42;1.10;;;6.40;99.90;;;;;;4982561;28;20046;-61
2024/01/31 04:23:16;;;;;;;2.97;1.27;;;6.40;99.90;;;;;;4988951;28;20046;-62
2024/01/31 04:25:41;;;;;;;2.20;1.00;;;6.40;99.90;;;;;;4987265;28;20113;-61
2024/01/31 04:28:07;;;;;;;3.22;1.00;;;6.40;99.90;;;;;;4989336;28;20077;-61
2024/01/31 04:30:33;;;;;;;2.22;1.20;;;;;;;;;;4989336;28;20038;-62
2024/01/31 04:33:00;;;;;;;4.88;2.08;;;;;;;;;;4988845;28;20035;-62
2024/01/31 04:35:26;;;;;;;7.68;1.45;;;;;;;;;;4986475;28;20042;-62
2024/01/31 04:37:53;;;;;;;2.08;0.90;;;;;;;;;;4987219;28;20034;-61
2024/01/31 04:40:19;;;;;;;1.33;0.80;;;;;;;;;;4987833;28;20387;-62
2024/01/31 04:42:46;;;;;;;4.00;1.42;;;;;;;;;;4987648;28;20050;-61
2024/01/31 04:45:13;;;;;;;1.92;1.20;;;;;;;;;;4985377;28;20443;-61
2024/01/31 04:47:41;;;;;;;4.05;1.05;;;;;;;;;;4984271;28;20565;-62
2024/01/31 04:50:07;;;;;;;2.83;0.98;;;;;;;;;;4987826;28;20068;-62
2024/01/31 04:52:33;;;;;;;5.75;1.35;;;;;;;;;;4989603;28;20039;-61
2024/01/31 04:54:59;;;;;;;5.18;1.20;;;;;;;;;;4987441;28;20444;-61
2024/01/31 04:57:25;;;;;;;3.25;1.00;;;;;;;;;;4988994;28;20053;-61
2024/01/31 04:59:52;;;;;;;1.88;1.25;;;;;;;;;;4984340;28;20049;-62
2024/01/31 05:02:18;;;;;;;3.03;1.02;;;;;;;;;;4982022;28;20081;-61
2024/01/31 05:04:44;;;;;;;4.30;1.20;;;;;;;;;;4982809;28;20030;-61
2024/01/31 05:07:10;;;;;;;3.08;1.85;;;;;;;;;;4988199;28;20038;-61
2024/01/31 05:09:36;;;;;;;2.58;1.10;;;;;;;;;;4988396;28;20050;-61
2024/01/31 05:12:02;;;;;;;6.25;1.20;;;;;;;;;;4986644;28;20046;-61
2024/01/31 05:14:29;;;;;;;2.13;1.05;;;;;;;;;;4984137;28;20054;-61
2024/01/31 05:16:55;;;;;;;4.60;1.30;;;;;;;;;;4982975;28;20084;-61
2024/01/31 05:19:21;;;;;;;2.95;1.17;;;;;;;;;;4989304;28;20165;-61
2024/01/31 05:21:52;;;;;;;5.85;1.92;;;;;;;;;;5018961;28;20044;-61
2024/01/31 05:24:19;;;;;;;8.27;1.50;;;;;;;;;;4988207;28;20152;-61
2024/01/31 05:26:46;;;;;;;4.00;1.30;;;;;;;;;;4993202;28;20534;-61
2024/01/31 05:29:13;;;;;;;3.90;1.00;;;;;;;;;;4993058;28;20187;-61
2024/01/31 05:31:39;;;;;;;3.75;1.60;;;;;;;;;;4992791;28;20038;-61
2024/01/31 05:34:05;;;;;;;2.75;1.35;;;;;;;;;;4990761;28;20176;-61
2024/01/31 05:36:31;;;;;;;3.25;1.55;;;;;;;;;;4992447;28;20518;-61
2024/01/31 05:38:57;;;;;;;4.00;1.20;;;;;;;;;;4992985;28;20043;-62
2024/01/31 05:41:24;;;;;;;4.47;1.52;;;;;;;;;;4994203;28;20062;-61
2024/01/31 05:43:50;;;;;;;3.35;1.40;;;;;;;;;;4989727;28;20503;-61
2024/01/31 05:46:17;;;;;;;6.85;1.15;;;;;;;;;;4992807;28;20057;-62
2024/01/31 05:48:47;;;;;;;5.72;1.00;;;;;;;;;;4993984;28;20659;-61
2024/01/31 05:51:13;;;;;;;4.18;1.20;;;;;;;;;;4995293;28;20038;-62
2024/01/31 05:53:40;;;;;;;10.50;1.52;;;;;;;;;;4985966;28;20037;-62
2024/01/31 05:56:06;;;;;;;2.90;1.20;;;;;;;;;;4993250;28;20038;-61
2024/01/31 05:58:32;;;;;;;8.70;1.35;;;6.40;99.90;;;;;;5003996;28;20566;-61
2024/01/31 06:00:57;;;;;;;4.13;2.05;;;6.20;99.90;;;;;;4992385;28;20042;-61
2024/01/31 06:03:25;;;;;;;4.75;1.27;;;6.20;99.90;;;;;;4994147;28;20109;-61
2024/01/31 06:05:54;;;;;;;2.28;1.10;;;6.20;99.90;;;;;;4993442;28;20503;-61
2024/01/31 06:08:23;;;;;;;12.38;3.10;;;6.20;99.90;;;;;;4993577;28;20149;-62
2024/01/31 06:11:03;;;;;;;2.50;1.00;;;6.20;99.90;;;;;;4988716;28;20059;-61
2024/01/31 06:13:32;;;;;;;2.38;1.20;;;6.10;99.90;;;;;;4990018;28;20072;-62
2024/01/31 06:15:58;;;;;;;4.78;1.73;;;6.10;99.90;;;;;;4991868;28;20049;-61
2024/01/31 06:18:24;;;;;;;3.80;1.50;;;6.10;99.90;;;;;;4992640;28;20076;-61
2024/01/31 06:20:50;;;;;;;4.28;1.35;;;6.10;99.90;;;;;;4969267;28;20408;-62
2024/01/31 06:23:17;;;;;;;3.78;1.20;;;;;;;;;;4992962;28;20189;-61
2024/01/31 06:25:43;;;;;;;4.90;1.27;;;;;;;;;;4997025;28;20045;-61
2024/01/31 06:28:09;;;;;;;2.10;1.08;;;;;;;;;;4983860;28;20066;-62
2024/01/31 06:30:44;;;;;;;2.15;0.90;;;;;;;;;;4990244;28;20202;-62
2024/01/31 06:33:10;;;;;;;5.97;1.20;;;;;;;;;;4985584;28;20046;-62
2024/01/31 06:35:38;;;;;;;2.30;1.05;;;;;;;;;;4983424;28;20035;-61
2024/01/31 06:38:05;;;;;;;2.78;1.10;;;;;;;;;;4985209;28;20038;-62
2024/01/31 06:40:31;;;;;;;6.10;1.80;;;;;;;;;;4983725;28;20157;-62
2024/01/31 06:43:00;;;;;;;4.35;1.85;;;;;;;;;;4980473;28;20138;-62
2024/01/31 06:45:26;;;;;;;3.72;1.33;;;;;;;;;;5000668;28;20185;-61
2024/01/31 06:47:52;;;;;;;3.95;1.20;;;;;;;;;;4990402;28;20072;-62
2024/01/31 06:50:19;;;;;;;3.80;1.17;;;;;;;;;;4982634;28;20053;-62
2024/01/31 06:52:46;;;;;;;6.07;1.58;;;;;;;;;;4982919;28;20211;-62
2024/01/31 06:55:13;;;;;;;6.40;1.42;;;;;;;;;;4990170;28;20058;-62
2024/01/31 06:57:40;;;;;;;9.55;1.60;;;;;;;;;;4984473;28;20403;-62
2024/01/31 07:00:07;;;;;;;5.13;1.70;;;;;;;;;;4987310;28;20061;-62
2024/01/31 07:02:33;;;;;;;6.50;1.70;;;;;;;;;;4989368;28;20046;-62
2024/01/31 07:04:59;;;;;;;5.65;1.80;;;;;;;;;;4991351;28;20054;-62
2024/01/31 07:07:25;;;;;;;3.75;1.73;;;;;;;;;;4981823;28;20038;-62
2024/01/31 07:09:51;;;;;;;3.05;1.55;;;;;;;;;;4984267;28;20536;-62
2024/01/31 07:12:18;;;;;;;4.82;1.52;;;;;;;;;;4987404;28;20085;-62
2024/01/31 07:14:44;;;;;;;5.78;1.30;;;;;;;;;;4987971;28;20496;-62
2024/01/31 07:17:10;;;;;;;7.03;1.85;;;;;;;;;;4981296;28;20096;-62
2024/01/31 07:19:36;;;;;;;6.05;2.65;;;;;;;;;;4984986;28;20042;-62
2024/01/31 07:22:02;;;;;;;7.13;1.45;;;;;;;;;;4985957;28;20626;-62
2024/01/31 07:24:29;;;;;;;2.95;1.40;;;;;;;;;;4982615;28;20035;-62
2024/01/31 07:26:55;;;;;;;2.97;1.48;;;;;;;;;;5000557;28;20057;-62
2024/01/31 07:29:21;;;;;;;5.88;1.85;;;;;;;;;;4988735;28;20424;-62
2024/01/31 07:31:47;;;;;;;7.03;1.90;;;;;;;;;;4983628;28;20078;-62
2024/01/31 07:34:13;;;;;;;6.88;1.75;;;;;;;;;;4990217;28;20034;-62
2024/01/31 07:36:39;;;;;;;3.50;1.63;;;;;;;;;;4980152;28;20618;-62
2024/01/31 07:39:05;;;;;;;2.78;1.35;;;;;;;;;;4987210;28;20092;-62
2024/01/31 07:41:33;;;;;;;6.35;1.58;;;;;;;;;;4987815;28;20070;-62
2024/01/31 07:43:59;;;;;;;3.95;1.45;;;;;;;;;;4983847;28;20038;-62
2024/01/31 07:46:25;;;;;;;4.97;2.22;;;;;;;;;;4986258;28;20066;-62
2024/01/31 07:48:54;;;;;;;9.07;3.33;;;;;;;;;;4985307;28;20117;-62
2024/01/31 07:51:21;;;;;;;9.38;2.38;;;;;;;;;;4989580;28;20456;-62
2024/01/31 07:53:47;;;;;;;5.68;2.20;;;;;;;;;;4983853;28;20062;-62
2024/01/31 07:56:13;;;;;;;4.50;1.90;;;;;;;;;;4972096;28;20054;-61
2024/01/31 07:58:40;;;;;;;5.53;1.95;;;;;;;;;;4988442;28;20045;-62
2024/01/31 08:01:06;;;;;;;4.85;2.65;;;;;;;;;;4988827;28;20180;-62
2024/01/31 08:03:38;;;;;;;6.93;2.20;;;;;;;;;;4990089;28;20081;-62
2024/01/31 08:06:06;;;;;;;5.25;2.50;;;;;;;;;;4988812;28;20068;-62
2024/01/31 08:08:32;;;;;;;4.07;1.73;;;;;;;;;;4987958;28;20042;-62
2024/01/31 08:10:59;;;;;;;4.65;2.22;;;;;;;;;;4989061;28;20157;-62
2024/01/31 08:13:25;;;;;;;3.50;2.30;;;;;;;;;;4987627;28;20065;-62
2024/01/31 08:15:52;;;;;;;3.97;2.30;;;;;;;;;;4990840;28;20062;-62
2024/01/31 08:18:18;;;;;;;5.60;2.40;;;;;;;;;;4990263;28;20043;-61
2024/01/31 08:20:44;;;;;;;6.22;2.97;;;;;;;;;;4989557;28;20050;-62
2024/01/31 08:23:11;;;;;;;3.70;2.05;;;;;;;;;;4988865;28;20046;-62
2024/01/31 08:25:37;;;;;;;3.53;2.00;;;;;;;;;;4988800;28;20042;-62
2024/01/31 08:28:05;;;;;;;4.40;2.15;;;;;;;;;;4986448;28;20056;-62
2024/01/31 08:30:31;;;;;;;4.30;2.33;;;;;;;;;;4987933;28;20034;-62
2024/01/31 08:32:57;;;;;;;4.85;2.67;;;;;;;;;;4989384;28;20042;-62
2024/01/31 08:35:23;;;;;;;5.28;2.47;;;;;;;;;;4988274;28;20038;-62
2024/01/31 08:37:49;;;;;;;4.03;3.25;;;;;;;;;;4989195;28;20113;-61
2024/01/31 08:40:15;;;;;;;4.03;2.75;;;;;;;;;;4984793;28;20077;-62
2024/01/31 08:42:41;;;;;;;2.95;2.42;;;;;;;;;;4984555;28;20065;-62
2024/01/31 08:45:09;;;;;;;4.03;3.22;;;;;;;;;;4985334;28;20129;-62
2024/01/31 08:47:35;;;;;;;4.13;2.85;;;;;;;;;;4988532;28;20559;-62
2024/01/31 08:50:02;;;;;;;6.75;3.13;;;;;;;;;;4987835;28;20042;-62
2024/01/31 08:52:28;;;;;;;5.47;2.95;;;;;;;;;;4981151;28;20182;-61
2024/01/31 08:54:54;;;;;;;5.28;3.17;;;;;;;;;;4977117;28;20054;-62
2024/01/31 08:57:20;;;;;;;5.22;3.20;;;;;;;;;;4977047;28;20105;-63
2024/01/31 08:59:46;;;;;;;5.82;3.50;;;;;;;;;;4988776;28;20508;-62
2024/01/31 09:02:13;;;;;;;7.32;3.33;;;;;;;;;;4988859;28;20179;-62
2024/01/31 09:04:39;;;;;;;8.60;4.15;;;;;;;;;;5011739;28;20042;-62
2024/01/31 09:07:05;;;;;;;6.55;3.60;;;;;;;;;;4982381;28;20297;-62
2024/01/31 09:09:33;;;;;;;5.50;3.78;;;;;;;;;;4987065;28;20121;-62
2024/01/31 09:12:00;;;;;;;8.13;4.38;;;;;;;;;;4983510;28;20045;-62
2024/01/31 09:14:26;;;;;;;4.90;3.42;;;;;;;;;;4985412;28;20046;-62
2024/01/31 09:16:52;;;;;;;5.88;3.70;;;;;;;;;;4976554;28;20049;-62
2024/01/31 09:19:18;;;;;;;8.60;4.45;;;;;;;;;;4984653;28;20039;-62
2024/01/31 09:21:44;;;;;;;4.30;3.30;;;;;;;;;;4982375;28;20054;-62
2024/01/31 09:24:10;;;;;;;7.20;4.05;;;;;;;;;;4980761;28;20073;-62
2024/01/31 09:26:36;;;;;;;6.03;4.13;;;;;;;;;;4983546;28;20487;-62
2024/01/31 09:29:03;;;;;;;5.43;4.03;;;;;;;;;;4983699;28;20049;-62
2024/01/31 09:31:30;;;;;;;5.75;3.97;;;;;;;;;;4985881;28;20426;-62
2024/01/31 09:33:56;;;;;;;7.72;4.45;;;;;;;;;;4982814;28;20046;-62
2024/01/31 09:36:22;;;;;;;6.85;4.05;;;;;;;;;;4979707;28;20061;-62
2024/01/31 09:38:49;;;;;;;8.20;3.85;;;;;;;;;;4977719;28;20043;-63
2024/01/31 09:41:16;;;;;;;7.43;4.65;;;;;;;;;;4982631;28;20144;-62
2024/01/31 09:43:45;;;;;;;7.20;4.70;;;;;;;;;;4982670;28;20041;-63
2024/01/31 09:46:12;;;;;;;8.38;4.97;;;;;;;;;;4982949;28;20046;-62
2024/01/31 09:48:40;;;;;;;6.75;4.13;;;;;;;;;;4985794;28;20385;-62
2024/01/31 09:51:07;;;;;;;7.05;4.90;;;;;;;;;;4985789;28;20609;-61
2024/01/31 09:53:34;;;;;;;8.15;4.85;;;;;;;;;;4982363;28;20034;-62
2024/01/31 09:56:00;;;;;;;7.20;4.90;;;;;;;;;;4985204;28;20077;-62
2024/01/31 09:58:26;;;;;;;5.25;3.97;;;;;;;;;;4981988;28;20101;-62
2024/01/31 10:00:53;;;;;;;6.80;4.50;;;;;;;;;;4986704;28;20443;-63
2024/01/31 10:03:19;;;;;;;7.65;4.78;;;;;;;;;;4984420;28;20077;-62
2024/01/31 10:05:45;;;;;;;7.60;4.88;;;;;;;;;;4982687;28;20674;-62
2024/01/31 10:08:11;;;;;;;6.07;4.55;;;;;;;;;;4982989;28;20042;-62
2024/01/31 10:10:38;;;;;;;7.97;4.88;;;;;;;;;;4977568;28;20165;-63
2024/01/31 10:13:06;;;;;;;5.43;4.10;;;;;;;;;;5000393;28;20047;-62
2024/01/31 10:15:33;;;;;;;7.00;4.45;;;;;;;;;;5004444;28;20038;-61
2024/01/31 10:17:59;;;;;;;6.53;4.78;;;;;;;;;;4984275;28;20042;-63
2024/01/31 10:20:25;;;;;;;6.53;4.38;;;;;;;;;;4988723;28;20097;-63
2024/01/31 10:22:52;;;;;;;7.32;4.78;;;;;;;;;;4976852;28;20136;-63
2024/01/31 10:25:18;;;;;;;8.23;4.45;;;;;;;;;;4981510;28;20050;-62
2024/01/31 10:27:47;;;;;;;7.15;4.63;;;;;;;;;;4985341;28;20097;-63
2024/01/31 10:30:14;;;;;;;5.45;4.10;;;;;;;;;;4978475;28;20046;-62
2024/01/31 10:32:45;;;;;;;6.10;4.00;;;;;;;;;;4989815;28;20221;-62
2024/01/31 10:35:12;;;;;;;6.28;4.25;;;;;;;;;;4984337;28;20462;-63
2024/01/31 10:37:38;;;;;;;6.43;4.07;;;;;;;;;;4982739;28;20141;-63
2024/01/31 10:40:12;;;;;;;7.18;5.57;;;;;;;;;;4982146;28;20046;-63
2024/01/31 10:42:39;;;;;;;7.97;3.78;;;;;;;;;;4987391;28;20058;-62
2024/01/31 10:45:05;;;;;;;6.90;3.97;;;;;;;;;;4988177;28;20220;-62
2024/01/31 10:47:32;;;;;;;5.50;4.40;;;;;;;;;;4983687;28;20034;-62
2024/01/31 10:49:58;;;;;;;8.43;5.68;;;;;;;;;;4993940;28;20038;-62
2024/01/31 10:52:28;;;;;;;7.22;4.43;;;;;;;;;;4986430;28;20089;-63
2024/01/31 10:54:55;;;;;;;6.93;4.47;;;;;;;;;;4984481;28;20037;-63
2024/01/31 10:57:22;;;;;;;6.50;4.45;;;;;;;;;;4983939;28;20483;-62
2024/01/31 10:59:52;;;;;;;8.68;4.80;;;;;;;;;;4983916;28;20030;-62
2024/01/31 11:02:19;;;;;;;6.18;3.97;;;;;;;;;;4985753;28;20053;-63
2024/01/31 11:04:45;;;;;;;6.10;3.63;;;;;;;;;;4983026;28;20034;-62
2024/01/31 11:07:21;;;;;;;6.90;4.18;;;;;;;;;;4987526;28;20518;-63
2024/01/31 11:09:48;;;;;;;6.95;4.60;;;;;;;;;;4978400;28;20486;-62
2024/01/31 11:12:14;;;;;;;7.00;4.68;;;;;;;;;;4998203;28;20137;-62
2024/01/31 11:14:42;;;;;;;7.18;4.13;;;;;;;;;;4986166;28;20070;-62
2024/01/31 11:17:09;;;;;;;7.65;4.80;;;;;;;;;;4983316;28;20900;-62
2024/01/31 11:19:40;;;;;;;9.15;4.10;;;;;;;;;;4980108;28;20070;-63
2024/01/31 11:22:07;;;;;;;6.82;4.50;;;;;;;;;;4985676;28;20128;-62
2024/01/31 11:24:34;;;;;;;5.82;4.43;;;;;;;;;;4983581;28;20398;-62
2024/01/31 11:27:02;;;;;;;6.13;4.00;;;;;;;;;;4984699;28;20034;-62
2024/01/31 11:29:30;;;;;;;5.75;4.28;;;;;;;;;;4987146;28;20108;-63
2024/01/31 11:31:56;;;;;;;6.00;4.28;;;;;;;;;;4986935;28;20241;-62
2024/01/31 11:34:24;;;;;;;6.07;3.78;;;;;;;;;;4985159;28;20076;-63
2024/01/31 11:36:50;;;;;;;6.35;3.83;;;;;;;;;;4984758;28;20129;-62
2024/01/31 11:39:16;;;;;;;8.20;3.67;;;;;;;;;;4983040;28;20043;-62
2024/01/31 11:41:42;;;;;;;6.13;4.32;;;;;;;;;;4986892;28;20406;-62
2024/01/31 11:44:09;;;;;;;6.47;3.72;;;;;;;;;;4975169;28;20057;-62
2024/01/31 11:46:35;;;;;;;5.32;3.28;;;;;;;;;;4986718;28;20218;-62
2024/01/31 11:49:01;;;;;;;5.70;3.78;;;;;;;;;;4984845;28;20495;-64
2024/01/31 11:51:28;;;;;;;5.97;3.20;;;;;;;;;;4976341;28;20317;-63
2024/01/31 11:53:54;;;;;;;5.45;3.30;;;;;;;;;;4987043;28;20038;-62
2024/01/31 11:56:20;;;;;;;6.30;3.30;;;;;;;;;;4985059;28;20458;-65
2024/01/31 11:58:47;;;;;;;5.85;3.70;;;;;;;;;;4985316;28;20052;-62
2024/01/31 12:01:13;;;;;;;6.13;3.50;;;;;;;;;;5016870;28;20196;-62
2024/01/31 12:03:40;;;;;;;6.00;3.47;;;;;;;;;;5018600;28;20050;-63
2024/01/31 12:06:06;;;;;;;5.45;3.90;;;;;;;;;;4986800;28;20136;-63
2024/01/31 12:08:32;;;;;;;5.47;3.88;;;;;;;;;;4984040;28;20042;-62
2024/01/31 12:10:59;;;;;;;5.47;3.60;;;;;;;;;;4979723;28;20046;-63
2024/01/31 12:13:26;;;;;;;6.85;3.97;;;;;;;;;;4985188;28;20228;-62
2024/01/31 12:15:52;;;;;;;6.55;3.25;;;;;;;;;;4982455;28;20042;-63
2024/01/31 12:18:18;;;;;;;5.40;3.75;;;;;;;;;;4985503;28;20034;-62
2024/01/31 12:20:44;;;;;;;5.50;3.60;;;;;;;;;;4984634;28;20549;-62
2024/01/31 12:23:10;;;;;;;6.32;3.00;;;;;;;;;;4987277;28;20054;-62
2024/01/31 12:25:36;;;;;;;6.53;3.72;;;;;;;;;;4983492;28;20125;-63
2024/01/31 12:28:03;;;;;;;7.93;3.80;;;;;;;;;;4983574;28;20042;-62
2024/01/31 12:30:29;;;;;;;4.05;2.75;;;;;;;;;;5000220;28;20062;-62
2024/01/31 12:32:55;;;;;;;4.50;2.70;;;;;;;;;;5017720;28;20407;-62
2024/01/31 12:35:22;;;;;;;8.98;3.55;;;;;;;;;;4985210;28;20038;-63
2024/01/31 12:37:49;;;;;;;3.67;2.55;;;;;;;;;;4985888;28;20052;-62
2024/01/31 12:40:15;;;;;;;5.65;3.50;;;;;;;;;;4984807;28;20077;-62
2024/01/31 12:42:41;;;;;;;4.10;2.70;;;;;;;;;;4980036;28;20125;-61
2024/01/31 12:45:07;;;;;;;5.45;2.92;;;;;;;;;;4984380;28;20406;-62
2024/01/31 12:47:34;;;;;;;4.78;3.22;;;;;;;;;;4981490;28;20700;-62
2024/01/31 12:50:00;;;;;;;4.82;2.90;;;;;;;;;;4987204;28;20439;-63
2024/01/31 12:52:26;;;;;;;4.43;3.35;;;;;;;;;;4988255;28;20146;-63
2024/01/31 12:54:52;;;;;;;5.35;3.65;;;;;;;;;;4986659;28;20232;-63
2024/01/31 12:57:18;;;;;;;7.03;3.83;;;;;;;;;;4981715;28;20045;-62
2024/01/31 12:59:46;;;;;;;8.38;3.72;;;7.00;99.90;;;;;;4986852;28;20046;-63
2024/01/31 13:02:12;;;;;;;4.05;3.40;;;7.00;99.90;;;;;;4983093;28;20054;-63
2024/01/31 13:04:38;;;;;;;4.90;3.28;;;7.00;99.90;;;;;;4984814;28;20044;-63
2024/01/31 13:07:04;;;;;;;5.63;3.60;;;7.00;99.90;;;;;;4994128;28;20042;-63
2024/01/31 13:09:30;;;;;;;5.40;4.13;;;7.00;99.90;;;;;;4985520;28;20092;-63
2024/01/31 13:11:55;;;;;;;6.07;4.00;;;7.00;99.90;;;;;;4983772;28;20104;-63
2024/01/31 13:14:21;;;;;;;6.88;4.95;;;7.00;99.90;;;;;;4983089;28;20463;-63
2024/01/31 13:16:47;;;;;;;7.88;4.55;;;7.00;99.90;;;;;;4994654;28;20042;-62
2024/01/31 13:19:13;;;;;;;8.55;4.90;;;7.00;99.90;;;;;;4984185;28;20038;-63
2024/01/31 13:21:43;;;;;;;7.63;4.97;;;7.00;99.90;;;;;;4983562;28;20406;-63
2024/01/31 13:24:09;;;;;;;6.75;4.72;;;7.00;99.90;;;;;;4985221;28;20058;-63
2024/01/31 13:26:35;;;;;;;7.65;5.60;;;7.00;99.90;;;;;;4985746;28;20096;-63
2024/01/31 13:29:02;;;;;;;7.50;4.88;;;7.00;99.90;;;;;;4984911;28;20050;-63
2024/01/31 13:31:29;;;;;;;7.00;4.95;;;7.00;99.90;;;;;;4984583;28;20054;-62
2024/01/31 13:33:55;;;;;;;6.80;4.85;;;7.00;99.90;;;;;;4986503;28;20053;-63
2024/01/31 13:36:20;;;;;;;7.30;4.70;;;7.00;99.90;;;;;;4986690;28;20038;-63
2024/01/31 13:38:48;;;;;;;7.97;5.43;;;7.00;99.90;;;;;;4997411;28;20041;-63
2024/01/31 13:41:14;;;;;;;7.93;5.55;;;7.00;99.90;;;;;;4982276;28;20085;-63
2024/01/31 13:43:40;;;;;;;6.90;4.60;;;7.10;99.90;;;;;;4978624;28;20061;-63
2024/01/31 13:46:06;;;;;;;8.98;5.38;;;7.00;99.90;;;;;;4979053;28;20128;-63
2024/01/31 13:48:32;;;;;;;11.10;6.72;;;;;;;;;;4983410;28;20041;-62
2024/01/31 13:50:58;;;;;;;9.57;6.05;;;;;;;;;;4987872;28;20885;-63
2024/01/31 13:53:25;;;;;;;8.13;5.85;;;;;;;;;;4986650;28;20358;-63
2024/01/31 13:55:51;;;;;;;7.95;5.10;;;;;;;;;;4985641;28;20054;-63
2024/01/31 13:58:17;;;;;;;8.63;5.75;;;;;;;;;;4978502;28;20077;-62
2024/01/31 14:00:43;;;;;;;7.38;5.15;;;;;;;;;;4980089;28;20038;-62
2024/01/31 14:03:09;;;;;;;10.38;6.40;;;;;;;;;;4981942;28;20157;-62
2024/01/31 14:05:35;;;;;;;9.77;5.40;;;;;;;;;;4979009;28;20047;-62
2024/01/31 14:08:01;;;;;;;11.55;6.90;;;;;;;;;;4989590;28;20145;-63
2024/01/31 14:10:27;;;;;;;11.50;7.05;;;;;;;;;;5004070;28;20153;-63
2024/01/31 14:12:54;;;;;;;7.25;5.00;;;;;;;;;;4982423;28;20050;-63
2024/01/31 14:15:20;;;;;;;12.20;7.32;;;;;;;;;;4985403;28;20382;-63
2024/01/31 14:17:46;;;;;;;10.13;6.55;;;;;;;;;;4985855;28;20042;-63
2024/01/31 14:20:12;;;;;;;9.73;5.82;;;;;;;;;;4987487;28;20244;-62
2024/01/31 14:22:39;;;;;;;11.60;6.38;;;;;;;;;;4999641;28;20034;-62
2024/01/31 14:25:05;;;;;;;9.77;7.53;;;;;;;;;;4978406;28;20421;-63
2024/01/31 14:27:31;;;;;;;9.73;6.80;;;;;;;;;;4984694;28;20038;-62